sensor_id;sensor_type;location;lat;lon;timestamp;temperature;humidity
49549;DHT22;35450;44.518;7.466;2022-08-18T00:03:00;21.60;96.70
49549;DHT22;35450;44.518;7.466;2022-08-18T00:06:07;21.50;96.70
49549;DHT22;35450;44.518;7.466;2022-08-18T00:09:11;21.40;94.80
49549;DHT22;35450;44.518;7.466;2022-08-18T00:12:24;21.40;92.80
49549;DHT22;35450;44.518;7.466;2022-08-18T00:15:29;21.40;91.90
49549;DHT22;35450;44.518;7.466;2022-08-18T00:18:33;21.40;92.50
49549;DHT22;35450;44.518;7.466;2022-08-18T00:21:36;21.30;93.10
49549;DHT22;35450;44.518;7.466;2022-08-18T00:24:41;21.20;94.50
49549;DHT22;35450;44.518;7.466;2022-08-18T00:27:45;21.20;95.20
49549;DHT22;35450;44.518;7.466;2022-08-18T00:30:49;21.10;95.70
49549;DHT22;35450;44.518;7.466;2022-08-18T00:33:53;21.10;95.00
49549;DHT22;35450;44.518;7.466;2022-08-18T00:36:57;21.00;94.80
49549;DHT22;35450;44.518;7.466;2022-08-18T00:40:02;21.00;95.40
49549;DHT22;35450;44.518;7.466;2022-08-18T00:43:12;20.90;95.00
49549;DHT22;35450;44.518;7.466;2022-08-18T00:46:26;20.90;94.90
49549;DHT22;35450;44.518;7.466;2022-08-18T00:49:30;20.90;95.00
49549;DHT22;35450;44.518;7.466;2022-08-18T00:52:34;20.70;95.30
49549;DHT22;35450;44.518;7.466;2022-08-18T00:55:41;20.30;95.60
49549;DHT22;35450;44.518;7.466;2022-08-18T00:58:58;20.20;96.60
49549;DHT22;35450;44.518;7.466;2022-08-18T01:02:05;20.20;98.20
49549;DHT22;35450;44.518;7.466;2022-08-18T01:08:18;20.20;98.80
49549;DHT22;35450;44.518;7.466;2022-08-18T01:11:22;19.90;99.10
49549;DHT22;35450;44.518;7.466;2022-08-18T01:14:26;19.60;99.60
49549;DHT22;35450;44.518;7.466;2022-08-18T01:17:30;19.50;99.90
49549;DHT22;35450;44.518;7.466;2022-08-18T01:21:19;19.50;99.90
49549;DHT22;35450;44.518;7.466;2022-08-18T01:24:44;19.60;99.90
49549;DHT22;35450;44.518;7.466;2022-08-18T01:28:07;19.80;99.70
49549;DHT22;35450;44.518;7.466;2022-08-18T01:31:12;19.80;99.10
49549;DHT22;35450;44.518;7.466;2022-08-18T01:34:31;19.70;99.00
49549;DHT22;35450;44.518;7.466;2022-08-18T01:37:36;19.70;99.30
49549;DHT22;35450;44.518;7.466;2022-08-18T01:40:40;19.80;98.60
49549;DHT22;35450;44.518;7.466;2022-08-18T01:43:44;19.90;98.50
49549;DHT22;35450;44.518;7.466;2022-08-18T01:46:48;20.10;98.20
49549;DHT22;35450;44.518;7.466;2022-08-18T01:49:55;20.00;97.80
49549;DHT22;35450;44.518;7.466;2022-08-18T01:53:02;19.90;97.50
49549;DHT22;35450;44.518;7.466;2022-08-18T01:56:08;19.90;97.70
49549;DHT22;35450;44.518;7.466;2022-08-18T01:59:12;19.90;97.90
49549;DHT22;35450;44.518;7.466;2022-08-18T02:02:21;19.80;97.90
49549;DHT22;35450;44.518;7.466;2022-08-18T02:05:33;19.90;97.70
49549;DHT22;35450;44.518;7.466;2022-08-18T02:08:39;20.00;97.70
49549;DHT22;35450;44.518;7.466;2022-08-18T02:11:43;20.00;97.70
49549;DHT22;35450;44.518;7.466;2022-08-18T02:14:47;20.10;98.00
49549;DHT22;35450;44.518;7.466;2022-08-18T02:17:52;20.10;97.90
49549;DHT22;35450;44.518;7.466;2022-08-18T02:21:03;20.20;97.80
49549;DHT22;35450;44.518;7.466;2022-08-18T02:24:08;20.20;97.30
49549;DHT22;35450;44.518;7.466;2022-08-18T02:27:13;20.20;97.00
49549;DHT22;35450;44.518;7.466;2022-08-18T02:30:18;20.10;96.10
49549;DHT22;35450;44.518;7.466;2022-08-18T02:33:22;20.10;95.90
49549;DHT22;35450;44.518;7.466;2022-08-18T02:36:26;20.00;95.30
49549;DHT22;35450;44.518;7.466;2022-08-18T02:39:34;19.90;95.20
49549;DHT22;35450;44.518;7.466;2022-08-18T02:42:41;19.80;95.40
49549;DHT22;35450;44.518;7.466;2022-08-18T02:45:45;19.70;95.60
49549;DHT22;35450;44.518;7.466;2022-08-18T02:48:49;19.70;95.30
49549;DHT22;35450;44.518;7.466;2022-08-18T02:51:54;19.70;95.50
49549;DHT22;35450;44.518;7.466;2022-08-18T02:55:00;19.70;96.20
49549;DHT22;35450;44.518;7.466;2022-08-18T02:58:04;19.80;96.60
49549;DHT22;35450;44.518;7.466;2022-08-18T03:01:09;19.90;96.50
49549;DHT22;35450;44.518;7.466;2022-08-18T03:04:15;19.90;96.10
49549;DHT22;35450;44.518;7.466;2022-08-18T03:07:20;19.70;97.00
49549;DHT22;35450;44.518;7.466;2022-08-18T03:10:23;19.60;97.10
49549;DHT22;35450;44.518;7.466;2022-08-18T03:13:27;19.70;95.70
49549;DHT22;35450;44.518;7.466;2022-08-18T03:16:33;19.80;95.00
49549;DHT22;35450;44.518;7.466;2022-08-18T03:19:38;19.90;95.10
49549;DHT22;35450;44.518;7.466;2022-08-18T03:22:42;20.00;96.30
49549;DHT22;35450;44.518;7.466;2022-08-18T03:25:48;20.00;96.50
49549;DHT22;35450;44.518;7.466;2022-08-18T03:28:53;19.90;97.10
49549;DHT22;35450;44.518;7.466;2022-08-18T03:31:57;19.90;97.80
49549;DHT22;35450;44.518;7.466;2022-08-18T03:35:01;19.80;98.20
49549;DHT22;35450;44.518;7.466;2022-08-18T03:38:05;19.50;98.30
49549;DHT22;35450;44.518;7.466;2022-08-18T03:41:11;19.30;98.70
49549;DHT22;35450;44.518;7.466;2022-08-18T03:44:16;19.30;98.90
49549;DHT22;35450;44.518;7.466;2022-08-18T03:47:20;19.30;98.80
49549;DHT22;35450;44.518;7.466;2022-08-18T03:50:24;19.30;98.70
49549;DHT22;35450;44.518;7.466;2022-08-18T03:53:28;19.40;98.70
49549;DHT22;35450;44.518;7.466;2022-08-18T03:56:35;19.50;98.50
49549;DHT22;35450;44.518;7.466;2022-08-18T03:59:40;19.50;98.70
49549;DHT22;35450;44.518;7.466;2022-08-18T04:02:46;19.60;98.70
49549;DHT22;35450;44.518;7.466;2022-08-18T04:05:50;19.60;98.70
49549;DHT22;35450;44.518;7.466;2022-08-18T04:08:55;19.60;98.70
49549;DHT22;35450;44.518;7.466;2022-08-18T04:12:04;19.60;98.10
49549;DHT22;35450;44.518;7.466;2022-08-18T04:15:12;19.60;98.30
49549;DHT22;35450;44.518;7.466;2022-08-18T04:18:16;19.70;98.40
49549;DHT22;35450;44.518;7.466;2022-08-18T04:21:20;19.60;98.30
49549;DHT22;35450;44.518;7.466;2022-08-18T04:24:27;19.60;98.50
49549;DHT22;35450;44.518;7.466;2022-08-18T04:27:31;19.60;98.40
49549;DHT22;35450;44.518;7.466;2022-08-18T04:30:36;19.60;98.30
49549;DHT22;35450;44.518;7.466;2022-08-18T04:33:40;19.50;98.10
49549;DHT22;35450;44.518;7.466;2022-08-18T04:36:44;19.40;98.10
49549;DHT22;35450;44.518;7.466;2022-08-18T04:39:48;19.30;98.10
49549;DHT22;35450;44.518;7.466;2022-08-18T04:42:52;19.20;97.90
49549;DHT22;35450;44.518;7.466;2022-08-18T04:45:56;19.20;97.90
49549;DHT22;35450;44.518;7.466;2022-08-18T04:49:04;19.10;97.50
49549;DHT22;35450;44.518;7.466;2022-08-18T04:52:08;19.00;97.60
49549;DHT22;35450;44.518;7.466;2022-08-18T04:55:31;19.00;97.70
49549;DHT22;35450;44.518;7.466;2022-08-18T04:58:35;19.00;97.70
49549;DHT22;35450;44.518;7.466;2022-08-18T05:01:43;19.10;97.80
49549;DHT22;35450;44.518;7.466;2022-08-18T05:04:48;19.20;97.80
49549;DHT22;35450;44.518;7.466;2022-08-18T05:07:52;19.20;97.40
49549;DHT22;35450;44.518;7.466;2022-08-18T05:10:57;19.20;97.20
49549;DHT22;35450;44.518;7.466;2022-08-18T05:14:04;19.10;97.40
49549;DHT22;35450;44.518;7.466;2022-08-18T05:17:08;19.20;97.20
49549;DHT22;35450;44.518;7.466;2022-08-18T05:20:12;19.20;97.50
49549;DHT22;35450;44.518;7.466;2022-08-18T05:23:17;19.20;98.00
49549;DHT22;35450;44.518;7.466;2022-08-18T05:26:21;19.20;98.00
49549;DHT22;35450;44.518;7.466;2022-08-18T05:29:24;19.20;97.60
49549;DHT22;35450;44.518;7.466;2022-08-18T05:32:42;19.10;97.80
49549;DHT22;35450;44.518;7.466;2022-08-18T05:35:50;19.00;97.70
49549;DHT22;35450;44.518;7.466;2022-08-18T05:42:21;19.00;97.50
49549;DHT22;35450;44.518;7.466;2022-08-18T05:45:28;19.00;97.20
49549;DHT22;35450;44.518;7.466;2022-08-18T05:48:33;19.10;96.70
49549;DHT22;35450;44.518;7.466;2022-08-18T05:51:44;19.10;96.40
49549;DHT22;35450;44.518;7.466;2022-08-18T05:54:52;19.00;96.10
49549;DHT22;35450;44.518;7.466;2022-08-18T05:58:19;19.00;96.20
49549;DHT22;35450;44.518;7.466;2022-08-18T06:01:32;19.00;95.10
49549;DHT22;35450;44.518;7.466;2022-08-18T06:07:55;19.20;95.40
49549;DHT22;35450;44.518;7.466;2022-08-18T06:11:01;19.30;95.10
49549;DHT22;35450;44.518;7.466;2022-08-18T06:14:05;19.50;95.30
49549;DHT22;35450;44.518;7.466;2022-08-18T06:21:07;19.80;95.30
49549;DHT22;35450;44.518;7.466;2022-08-18T06:24:28;19.80;95.10
49549;DHT22;35450;44.518;7.466;2022-08-18T06:27:54;19.90;95.30
49549;DHT22;35450;44.518;7.466;2022-08-18T06:31:08;20.00;95.30
49549;DHT22;35450;44.518;7.466;2022-08-18T06:41:41;20.00;96.00
49549;DHT22;35450;44.518;7.466;2022-08-18T06:44:48;20.20;95.60
49549;DHT22;35450;44.518;7.466;2022-08-18T06:51:06;20.20;95.80
49549;DHT22;35450;44.518;7.466;2022-08-18T06:57:36;20.20;95.70
49549;DHT22;35450;44.518;7.466;2022-08-18T07:03:57;20.10;95.70
49549;DHT22;35450;44.518;7.466;2022-08-18T07:07:17;20.10;96.00
49549;DHT22;35450;44.518;7.466;2022-08-18T07:10:36;20.20;95.80
49549;DHT22;35450;44.518;7.466;2022-08-18T07:13:42;20.30;96.00
49549;DHT22;35450;44.518;7.466;2022-08-18T07:16:48;20.30;95.90
49549;DHT22;35450;44.518;7.466;2022-08-18T07:20:23;20.30;95.80
49549;DHT22;35450;44.518;7.466;2022-08-18T07:23:39;20.30;95.90
49549;DHT22;35450;44.518;7.466;2022-08-18T07:30:25;20.40;95.70
49549;DHT22;35450;44.518;7.466;2022-08-18T07:33:30;20.50;95.50
49549;DHT22;35450;44.518;7.466;2022-08-18T07:36:54;20.70;95.10
49549;DHT22;35450;44.518;7.466;2022-08-18T07:46:54;20.70;95.20
49549;DHT22;35450;44.518;7.466;2022-08-18T07:50:01;20.60;95.00
49549;DHT22;35450;44.518;7.466;2022-08-18T07:56:46;20.60;95.20
49549;DHT22;35450;44.518;7.466;2022-08-18T08:00:14;20.50;95.40
49549;DHT22;35450;44.518;7.466;2022-08-18T08:06:58;20.40;95.70
49549;DHT22;35450;44.518;7.466;2022-08-18T08:17:02;20.40;95.60
49549;DHT22;35450;44.518;7.466;2022-08-18T08:20:31;20.50;95.70
49549;DHT22;35450;44.518;7.466;2022-08-18T08:27:11;20.40;96.20
49549;DHT22;35450;44.518;7.466;2022-08-18T08:30:23;20.40;96.60
49549;DHT22;35450;44.518;7.466;2022-08-18T08:33:54;20.20;96.50
49549;DHT22;35450;44.518;7.466;2022-08-18T08:37:03;20.20;96.80
49549;DHT22;35450;44.518;7.466;2022-08-18T08:40:15;20.20;96.80
49549;DHT22;35450;44.518;7.466;2022-08-18T08:43:41;20.20;96.80
49549;DHT22;35450;44.518;7.466;2022-08-18T08:47:01;20.30;96.70
49549;DHT22;35450;44.518;7.466;2022-08-18T08:50:14;20.20;96.70
49549;DHT22;35450;44.518;7.466;2022-08-18T08:53:42;20.30;96.60
49549;DHT22;35450;44.518;7.466;2022-08-18T08:56:50;20.20;96.90
49549;DHT22;35450;44.518;7.466;2022-08-18T08:59:56;20.20;96.80
49549;DHT22;35450;44.518;7.466;2022-08-18T09:24:40;20.20;96.90
49549;DHT22;35450;44.518;7.466;2022-08-18T09:27:45;20.30;96.90
49549;DHT22;35450;44.518;7.466;2022-08-18T09:40:55;20.30;96.60
49549;DHT22;35450;44.518;7.466;2022-08-18T09:51:18;20.50;96.30
49549;DHT22;35450;44.518;7.466;2022-08-18T09:54:32;20.70;96.60
49549;DHT22;35450;44.518;7.466;2022-08-18T09:57:37;20.70;96.10
49549;DHT22;35450;44.518;7.466;2022-08-18T10:00:41;20.90;95.80
49549;DHT22;35450;44.518;7.466;2022-08-18T10:07:41;21.30;95.40
49549;DHT22;35450;44.518;7.466;2022-08-18T10:11:01;21.20;93.60
49549;DHT22;35450;44.518;7.466;2022-08-18T10:14:17;21.10;94.10
49549;DHT22;35450;44.518;7.466;2022-08-18T10:20:53;21.10;94.50
49549;DHT22;35450;44.518;7.466;2022-08-18T10:27:44;21.40;93.70
49549;DHT22;35450;44.518;7.466;2022-08-18T10:31:04;21.50;93.70
49549;DHT22;35450;44.518;7.466;2022-08-18T10:34:10;21.70;94.20
49549;DHT22;35450;44.518;7.466;2022-08-18T10:37:17;21.80;93.60
49549;DHT22;35450;44.518;7.466;2022-08-18T10:40:22;22.00;93.00
49549;DHT22;35450;44.518;7.466;2022-08-18T10:43:47;22.10;92.30
49549;DHT22;35450;44.518;7.466;2022-08-18T10:46:52;22.00;91.50
49549;DHT22;35450;44.518;7.466;2022-08-18T10:49:56;22.20;91.70
49549;DHT22;35450;44.518;7.466;2022-08-18T10:53:09;22.30;90.70
49549;DHT22;35450;44.518;7.466;2022-08-18T11:02:56;23.00;88.90
49549;DHT22;35450;44.518;7.466;2022-08-18T11:06:06;23.30;89.50
49549;DHT22;35450;44.518;7.466;2022-08-18T11:09:11;23.40;89.70
49549;DHT22;35450;44.518;7.466;2022-08-18T11:19:13;23.60;88.60
49549;DHT22;35450;44.518;7.466;2022-08-18T11:22:22;23.70;88.60
49549;DHT22;35450;44.518;7.466;2022-08-18T11:25:33;23.80;87.80
49549;DHT22;35450;44.518;7.466;2022-08-18T11:28:37;23.80;86.90
49549;DHT22;35450;44.518;7.466;2022-08-18T11:31:42;23.90;87.10
49549;DHT22;35450;44.518;7.466;2022-08-18T11:34:58;23.90;86.40
49549;DHT22;35450;44.518;7.466;2022-08-18T11:38:09;23.90;86.40
49549;DHT22;35450;44.518;7.466;2022-08-18T11:41:19;23.90;86.90
49549;DHT22;35450;44.518;7.466;2022-08-18T11:44:29;23.90;86.70
49549;DHT22;35450;44.518;7.466;2022-08-18T11:47:36;24.00;86.30
49549;DHT22;35450;44.518;7.466;2022-08-18T12:03:44;24.20;86.70
49549;DHT22;35450;44.518;7.466;2022-08-18T12:13:24;23.90;89.70
49549;DHT22;35450;44.518;7.466;2022-08-18T12:16:40;23.90;89.50
49549;DHT22;35450;44.518;7.466;2022-08-18T12:19:49;23.90;89.40
49549;DHT22;35450;44.518;7.466;2022-08-18T12:22:55;23.90;89.90
49549;DHT22;35450;44.518;7.466;2022-08-18T12:25:59;24.00;89.90
49549;DHT22;35450;44.518;7.466;2022-08-18T12:29:03;24.00;90.10
49549;DHT22;35450;44.518;7.466;2022-08-18T12:32:07;24.00;90.20
49549;DHT22;35450;44.518;7.466;2022-08-18T12:35:12;24.00;89.90
49549;DHT22;35450;44.518;7.466;2022-08-18T12:38:16;24.00;90.10
49549;DHT22;35450;44.518;7.466;2022-08-18T12:41:22;23.90;90.00
49549;DHT22;35450;44.518;7.466;2022-08-18T12:44:27;24.00;90.00
49549;DHT22;35450;44.518;7.466;2022-08-18T12:47:31;24.10;90.20
49549;DHT22;35450;44.518;7.466;2022-08-18T12:50:36;24.10;89.90
49549;DHT22;35450;44.518;7.466;2022-08-18T12:53:40;24.00;89.60
49549;DHT22;35450;44.518;7.466;2022-08-18T12:56:49;23.90;89.70
49549;DHT22;35450;44.518;7.466;2022-08-18T12:59:54;23.80;90.00
49549;DHT22;35450;44.518;7.466;2022-08-18T13:02:58;23.80;90.40
49549;DHT22;35450;44.518;7.466;2022-08-18T13:06:02;23.80;90.30
49549;DHT22;35450;44.518;7.466;2022-08-18T13:09:06;23.90;90.20
49549;DHT22;35450;44.518;7.466;2022-08-18T13:12:11;23.90;90.10
49549;DHT22;35450;44.518;7.466;2022-08-18T13:15:16;23.90;89.40
49549;DHT22;35450;44.518;7.466;2022-08-18T13:18:20;23.90;90.00
49549;DHT22;35450;44.518;7.466;2022-08-18T13:21:25;24.00;89.60
49549;DHT22;35450;44.518;7.466;2022-08-18T13:24:29;24.00;89.40
49549;DHT22;35450;44.518;7.466;2022-08-18T13:27:34;24.00;89.40
49549;DHT22;35450;44.518;7.466;2022-08-18T13:30:38;24.10;89.10
49549;DHT22;35450;44.518;7.466;2022-08-18T13:33:42;24.10;88.60
49549;DHT22;35450;44.518;7.466;2022-08-18T13:36:46;24.00;88.00
49549;DHT22;35450;44.518;7.466;2022-08-18T13:39:50;23.90;88.00
49549;DHT22;35450;44.518;7.466;2022-08-18T13:42:54;23.90;88.90
49549;DHT22;35450;44.518;7.466;2022-08-18T13:45:58;23.80;89.20
49549;DHT22;35450;44.518;7.466;2022-08-18T13:49:02;23.80;88.60
49549;DHT22;35450;44.518;7.466;2022-08-18T13:52:10;23.70;89.50
49549;DHT22;35450;44.518;7.466;2022-08-18T13:55:16;23.70;89.50
49549;DHT22;35450;44.518;7.466;2022-08-18T13:58:20;23.70;89.20
49549;DHT22;35450;44.518;7.466;2022-08-18T14:01:25;23.80;87.60
49549;DHT22;35450;44.518;7.466;2022-08-18T14:04:29;23.80;87.80
49549;DHT22;35450;44.518;7.466;2022-08-18T14:07:34;23.90;88.40
49549;DHT22;35450;44.518;7.466;2022-08-18T14:10:39;24.00;87.50
49549;DHT22;35450;44.518;7.466;2022-08-18T14:13:43;24.10;88.20
49549;DHT22;35450;44.518;7.466;2022-08-18T14:16:47;24.20;88.30
49549;DHT22;35450;44.518;7.466;2022-08-18T14:19:51;24.40;87.50
49549;DHT22;35450;44.518;7.466;2022-08-18T14:23:14;24.50;88.10
49549;DHT22;35450;44.518;7.466;2022-08-18T14:26:36;24.50;88.30
49549;DHT22;35450;44.518;7.466;2022-08-18T14:29:53;24.50;86.90
49549;DHT22;35450;44.518;7.466;2022-08-18T14:32:58;24.50;86.40
49549;DHT22;35450;44.518;7.466;2022-08-18T14:36:03;24.50;86.80
49549;DHT22;35450;44.518;7.466;2022-08-18T14:39:08;24.50;86.80
49549;DHT22;35450;44.518;7.466;2022-08-18T14:42:14;24.50;87.10
49549;DHT22;35450;44.518;7.466;2022-08-18T14:45:18;24.50;86.70
49549;DHT22;35450;44.518;7.466;2022-08-18T14:48:22;24.40;87.20
49549;DHT22;35450;44.518;7.466;2022-08-18T14:51:27;24.40;86.70
49549;DHT22;35450;44.518;7.466;2022-08-18T14:54:31;24.30;86.80
49549;DHT22;35450;44.518;7.466;2022-08-18T14:57:38;24.20;87.60
49549;DHT22;35450;44.518;7.466;2022-08-18T15:00:42;24.10;88.10
49549;DHT22;35450;44.518;7.466;2022-08-18T15:03:47;24.10;89.00
49549;DHT22;35450;44.518;7.466;2022-08-18T15:06:51;24.10;89.40
49549;DHT22;35450;44.518;7.466;2022-08-18T15:09:55;24.00;90.00
49549;DHT22;35450;44.518;7.466;2022-08-18T15:13:01;23.90;89.90
49549;DHT22;35450;44.518;7.466;2022-08-18T15:16:06;23.90;90.20
49549;DHT22;35450;44.518;7.466;2022-08-18T15:19:16;23.90;90.40
49549;DHT22;35450;44.518;7.466;2022-08-18T15:22:20;24.10;90.20
49549;DHT22;35450;44.518;7.466;2022-08-18T15:25:44;24.00;90.10
49549;DHT22;35450;44.518;7.466;2022-08-18T15:28:48;23.90;90.10
49549;DHT22;35450;44.518;7.466;2022-08-18T15:31:53;23.80;90.20
49549;DHT22;35450;44.518;7.466;2022-08-18T15:34:57;23.70;90.30
49549;DHT22;35450;44.518;7.466;2022-08-18T15:38:01;23.50;90.60
49549;DHT22;35450;44.518;7.466;2022-08-18T15:41:05;23.50;90.60
49549;DHT22;35450;44.518;7.466;2022-08-18T15:44:09;23.70;90.60
49549;DHT22;35450;44.518;7.466;2022-08-18T15:47:14;23.90;90.60
49549;DHT22;35450;44.518;7.466;2022-08-18T15:50:19;23.90;90.00
49549;DHT22;35450;44.518;7.466;2022-08-18T15:53:25;23.90;90.20
49549;DHT22;35450;44.518;7.466;2022-08-18T15:56:29;23.70;90.10
49549;DHT22;35450;44.518;7.466;2022-08-18T15:59:34;23.70;90.30
49549;DHT22;35450;44.518;7.466;2022-08-18T16:02:39;23.50;90.40
49549;DHT22;35450;44.518;7.466;2022-08-18T16:05:49;23.50;90.70
49549;DHT22;35450;44.518;7.466;2022-08-18T16:08:54;23.40;90.90
49549;DHT22;35450;44.518;7.466;2022-08-18T16:11:58;23.30;91.30
49549;DHT22;35450;44.518;7.466;2022-08-18T16:15:03;23.10;91.70
49549;DHT22;35450;44.518;7.466;2022-08-18T16:18:08;22.90;92.20
49549;DHT22;35450;44.518;7.466;2022-08-18T16:21:16;22.90;92.50
49549;DHT22;35450;44.518;7.466;2022-08-18T16:24:21;22.90;92.50
49549;DHT22;35450;44.518;7.466;2022-08-18T16:27:26;22.70;92.60
49549;DHT22;35450;44.518;7.466;2022-08-18T16:30:34;22.60;92.70
49549;DHT22;35450;44.518;7.466;2022-08-18T16:33:38;22.60;93.10
49549;DHT22;35450;44.518;7.466;2022-08-18T16:36:42;22.50;93.20
49549;DHT22;35450;44.518;7.466;2022-08-18T16:39:46;22.50;93.40
49549;DHT22;35450;44.518;7.466;2022-08-18T16:42:53;22.50;93.60
49549;DHT22;35450;44.518;7.466;2022-08-18T16:45:58;22.40;93.90
49549;DHT22;35450;44.518;7.466;2022-08-18T16:49:05;22.40;94.00
49549;DHT22;35450;44.518;7.466;2022-08-18T16:52:10;22.30;94.10
49549;DHT22;35450;44.518;7.466;2022-08-18T16:55:16;22.30;94.60
49549;DHT22;35450;44.518;7.466;2022-08-18T16:58:20;22.20;95.20
49549;DHT22;35450;44.518;7.466;2022-08-18T17:01:43;22.20;95.20
49549;DHT22;35450;44.518;7.466;2022-08-18T17:05:06;22.20;95.20
49549;DHT22;35450;44.518;7.466;2022-08-18T17:08:10;22.10;95.30
49549;DHT22;35450;44.518;7.466;2022-08-18T17:11:18;22.10;95.30
49549;DHT22;35450;44.518;7.466;2022-08-18T17:14:25;21.90;95.60
49549;DHT22;35450;44.518;7.466;2022-08-18T17:17:29;21.90;95.50
49549;DHT22;35450;44.518;7.466;2022-08-18T17:20:34;21.90;95.60
49549;DHT22;35450;44.518;7.466;2022-08-18T17:23:40;21.70;95.70
49549;DHT22;35450;44.518;7.466;2022-08-18T17:33:00;21.80;95.80
49549;DHT22;35450;44.518;7.466;2022-08-18T17:36:07;21.80;96.00
49549;DHT22;35450;44.518;7.466;2022-08-18T17:39:14;21.80;96.10
49549;DHT22;35450;44.518;7.466;2022-08-18T17:42:20;21.80;96.00
49549;DHT22;35450;44.518;7.466;2022-08-18T17:45:34;21.70;96.30
49549;DHT22;35450;44.518;7.466;2022-08-18T17:48:46;21.70;96.30
49549;DHT22;35450;44.518;7.466;2022-08-18T17:51:51;21.50;96.40
49549;DHT22;35450;44.518;7.466;2022-08-18T17:55:08;21.50;94.10
49549;DHT22;35450;44.518;7.466;2022-08-18T17:58:46;21.20;93.10
49549;DHT22;35450;44.518;7.466;2022-08-18T18:02:19;20.60;92.90
49549;DHT22;35450;44.518;7.466;2022-08-18T18:05:34;20.10;94.70
49549;DHT22;35450;44.518;7.466;2022-08-18T18:08:47;19.90;94.60
49549;DHT22;35450;44.518;7.466;2022-08-18T18:11:51;19.70;95.20
49549;DHT22;35450;44.518;7.466;2022-08-18T18:14:59;19.50;94.30
49549;DHT22;35450;44.518;7.466;2022-08-18T18:21:27;18.70;96.40
49549;DHT22;35450;44.518;7.466;2022-08-18T18:24:35;18.30;97.90
49549;DHT22;35450;44.518;7.466;2022-08-18T18:27:43;18.00;98.50
49549;DHT22;35450;44.518;7.466;2022-08-18T18:30:48;18.00;98.60
49549;DHT22;35450;44.518;7.466;2022-08-18T18:33:59;17.90;98.60
49549;DHT22;35450;44.518;7.466;2022-08-18T18:37:22;17.90;98.30
49549;DHT22;35450;44.518;7.466;2022-08-18T18:40:28;17.90;98.00
49549;DHT22;35450;44.518;7.466;2022-08-18T18:43:36;17.90;97.90
49549;DHT22;35450;44.518;7.466;2022-08-18T18:47:00;17.90;97.90
49549;DHT22;35450;44.518;7.466;2022-08-18T18:50:27;17.90;97.80
49549;DHT22;35450;44.518;7.466;2022-08-18T18:53:45;18.10;97.40
49549;DHT22;35450;44.518;7.466;2022-08-18T18:56:54;18.10;96.60
49549;DHT22;35450;44.518;7.466;2022-08-18T19:03:55;18.20;96.90
49549;DHT22;35450;44.518;7.466;2022-08-18T19:07:29;18.20;96.90
49549;DHT22;35450;44.518;7.466;2022-08-18T19:10:41;18.10;97.10
49549;DHT22;35450;44.518;7.466;2022-08-18T19:13:51;18.00;97.20
49549;DHT22;35450;44.518;7.466;2022-08-18T19:17:09;18.10;97.10
49549;DHT22;35450;44.518;7.466;2022-08-18T19:20:23;18.10;96.90
49549;DHT22;35450;44.518;7.466;2022-08-18T19:23:38;18.20;95.70
49549;DHT22;35450;44.518;7.466;2022-08-18T19:26:48;18.30;95.90
49549;DHT22;35450;44.518;7.466;2022-08-18T19:30:00;18.40;95.50
49549;DHT22;35450;44.518;7.466;2022-08-18T19:33:05;18.40;95.60
49549;DHT22;35450;44.518;7.466;2022-08-18T19:36:25;18.30;95.50
49549;DHT22;35450;44.518;7.466;2022-08-18T19:39:55;18.30;95.50
49549;DHT22;35450;44.518;7.466;2022-08-18T19:46:38;18.50;94.30
49549;DHT22;35450;44.518;7.466;2022-08-18T19:49:47;18.60;94.30
49549;DHT22;35450;44.518;7.466;2022-08-18T20:16:41;18.50;94.90
49549;DHT22;35450;44.518;7.466;2022-08-18T20:29:44;18.40;95.00
49549;DHT22;35450;44.518;7.466;2022-08-18T20:33:18;18.40;94.80
49549;DHT22;35450;44.518;7.466;2022-08-18T20:36:31;18.30;94.80
49549;DHT22;35450;44.518;7.466;2022-08-18T20:39:44;18.20;94.90
49549;DHT22;35450;44.518;7.466;2022-08-18T20:42:48;18.10;94.50
49549;DHT22;35450;44.518;7.466;2022-08-18T20:46:23;18.20;94.20
49549;DHT22;35450;44.518;7.466;2022-08-18T20:56:45;18.50;92.70
49549;DHT22;35450;44.518;7.466;2022-08-18T20:59:57;18.50;92.80
49549;DHT22;35450;44.518;7.466;2022-08-18T21:03:08;18.40;93.70
49549;DHT22;35450;44.518;7.466;2022-08-18T21:06:14;18.30;94.10
49549;DHT22;35450;44.518;7.466;2022-08-18T21:09:18;18.20;94.30
49549;DHT22;35450;44.518;7.466;2022-08-18T21:12:25;18.20;94.50
49549;DHT22;35450;44.518;7.466;2022-08-18T21:15:35;18.20;95.50
49549;DHT22;35450;44.518;7.466;2022-08-18T21:18:51;18.40;96.20
49549;DHT22;35450;44.518;7.466;2022-08-18T21:21:58;18.40;96.00
49549;DHT22;35450;44.518;7.466;2022-08-18T21:25:09;18.40;95.90
49549;DHT22;35450;44.518;7.466;2022-08-18T21:28:14;18.40;95.30
49549;DHT22;35450;44.518;7.466;2022-08-18T21:34:32;18.40;96.00
49549;DHT22;35450;44.518;7.466;2022-08-18T21:37:40;18.30;96.30
49549;DHT22;35450;44.518;7.466;2022-08-18T21:40:46;18.40;96.70
49549;DHT22;35450;44.518;7.466;2022-08-18T21:43:55;18.50;96.60
49549;DHT22;35450;44.518;7.466;2022-08-18T21:47:13;18.60;96.60
49549;DHT22;35450;44.518;7.466;2022-08-18T21:50:30;18.40;97.10
49549;DHT22;35450;44.518;7.466;2022-08-18T21:53:34;18.40;97.10
49549;DHT22;35450;44.518;7.466;2022-08-18T21:56:40;18.30;96.60
49549;DHT22;35450;44.518;7.466;2022-08-18T22:03:20;18.20;96.60
49549;DHT22;35450;44.518;7.466;2022-08-18T22:06:39;18.30;96.70
49549;DHT22;35450;44.518;7.466;2022-08-18T22:13:25;18.20;96.40
49549;DHT22;35450;44.518;7.466;2022-08-18T22:16:48;18.00;96.70
49549;DHT22;35450;44.518;7.466;2022-08-18T22:19:52;17.90;97.20
49549;DHT22;35450;44.518;7.466;2022-08-18T22:26:36;17.80;97.20
49549;DHT22;35450;44.518;7.466;2022-08-18T22:29:45;17.80;97.60
49549;DHT22;35450;44.518;7.466;2022-08-18T22:32:51;17.70;97.40
49549;DHT22;35450;44.518;7.466;2022-08-18T22:35:56;17.70;97.50
49549;DHT22;35450;44.518;7.466;2022-08-18T22:39:00;17.80;96.90
49549;DHT22;35450;44.518;7.466;2022-08-18T22:42:05;17.90;96.50
49549;DHT22;35450;44.518;7.466;2022-08-18T22:45:12;17.90;95.90
49549;DHT22;35450;44.518;7.466;2022-08-18T22:48:17;18.10;94.90
49549;DHT22;35450;44.518;7.466;2022-08-18T22:51:26;18.10;94.60
49549;DHT22;35450;44.518;7.466;2022-08-18T22:54:32;18.10;94.50
49549;DHT22;35450;44.518;7.466;2022-08-18T22:57:37;18.10;94.60
49549;DHT22;35450;44.518;7.466;2022-08-18T23:00:41;18.10;94.50
49549;DHT22;35450;44.518;7.466;2022-08-18T23:03:45;18.00;94.20
49549;DHT22;35450;44.518;7.466;2022-08-18T23:06:49;18.10;93.90
49549;DHT22;35450;44.518;7.466;2022-08-18T23:09:56;18.20;93.90
49549;DHT22;35450;44.518;7.466;2022-08-18T23:13:00;18.20;94.00
49549;DHT22;35450;44.518;7.466;2022-08-18T23:16:06;18.20;93.90
49549;DHT22;35450;44.518;7.466;2022-08-18T23:19:16;18.20;94.00
49549;DHT22;35450;44.518;7.466;2022-08-18T23:22:20;18.10;93.90
49549;DHT22;35450;44.518;7.466;2022-08-18T23:25:24;18.30;93.90